Lorraine — A8IZ3 — position and weather

sailwx.info

Track history (hours):
 
Tides and Currents Weather Stations Pressure Air Temp Water Temp Dewpoint Dewpoint Depression Visibility Wind Speed Wind Dir Waves Ship Positions

Lorraine

Last reported at 2015-Mar-26 01:33 UTC. Time now 2015-Mar-31 18:07 UTC.
Position N 22°15' E 120°13'.

Length 221 m; draft 10.8 m.

Type: Ship. MMSI: 636012905.

Date/timePositionNaut miles runAvg speedWind from/ knotsBaromVisibWave heightAir tempDewpointWater temp
2015-Mar-26 01:33N 22°15' E 120°13'1717.3
2015-Mar-26 00:33N 22°33' E 120°15'4 3.6
2015-Mar-25 23:28N 22°33' E 120°20'0 0.0
2015-Mar-25 22:33N 22°33' E 120°20'0 0.0
2015-Mar-25 21:33N 22°33' E 120°20'0 0.0
2015-Mar-25 20:32N 22°33' E 120°20'0 0.0
2015-Mar-25 19:33N 22°33' E 120°20'0 0.0
2015-Mar-25 18:33N 22°33' E 120°20'0 0.0
2015-Mar-25 17:33N 22°33' E 120°20'0 0.0
2015-Mar-25 16:33N 22°33' E 120°20'0 0.0
2015-Mar-25 15:33N 22°33' E 120°20'0 0.0
2015-Mar-25 14:33N 22°33' E 120°20'0 0.0
2015-Mar-25 13:33N 22°33' E 120°20'0 0.1
2015-Mar-25 12:33N 22°33' E 120°20'7 6.7
2015-Mar-25 11:33N 22°32' E 120°12'1716.7
2015-Mar-25 10:33N 22°45' E 120°01'41919.0
2015-Mar-24 12:33N 29°22' E 122°32'2020.1
2015-Mar-24 11:33N 29°41' E 122°26'1615.2
2015-Mar-24 10:31N 29°51' E 122°12'1212.4
2015-Mar-24 09:33N 29°57' E 121°60'7 5.3
2015-Mar-24 08:16N 29°56' E 121°52'0 0.2
2015-Mar-24 07:33N 29°56' E 121°52'0 0.0
2015-Mar-24 06:21N 29°56' E 121°52'0 0.1
2015-Mar-24 05:32N 29°56' E 121°52'0 0.1
2015-Mar-24 04:32N 29°56' E 121°52'0 0.3
2015-Mar-24 03:13N 29°56' E 121°52'1 0.5
2015-Mar-24 01:31N 29°57' E 121°53'0 0.0
2015-Mar-24 00:13N 29°57' E 121°53'0 0.0
2015-Mar-23 23:12N 29°57' E 121°53'0 0.0
2015-Mar-23 22:30N 29°57' E 121°53'0 0.0
2015-Mar-23 21:29N 29°57' E 121°53'0 0.1
2015-Mar-23 20:29N 29°57' E 121°53'0 0.1
2015-Mar-23 19:29N 29°57' E 121°53'0 0.1
2015-Mar-23 18:28N 29°57' E 121°53'0 0.1
2015-Mar-23 17:28N 29°57' E 121°53'0 0.0
2015-Mar-23 16:33N 29°57' E 121°53'0 0.1
2015-Mar-23 15:33N 29°57' E 121°53'0 0.0
2015-Mar-23 14:05N 29°57' E 121°53'0 0.0
2015-Mar-23 13:14N 29°57' E 121°53'0 0.0
2015-Mar-23 12:32N 29°57' E 121°53'0 0.0
2015-Mar-23 11:04N 29°57' E 121°53'0 0.0
2015-Mar-23 10:22N 29°57' E 121°53'0 0.0
2015-Mar-23 09:30N 29°57' E 121°53'0 0.0
2015-Mar-23 08:21N 29°57' E 121°53'0 0.0
2015-Mar-23 07:29N 29°57' E 121°53'0 0.0
2015-Mar-23 06:29N 29°57' E 121°53'0 0.1
2015-Mar-23 05:26N 29°57' E 121°53'0 0.0
2015-Mar-23 04:31N 29°57' E 121°53'0 0.1
2015-Mar-23 03:33N 29°57' E 121°53'3 3.3
2015-Mar-23 02:34N 29°58' E 121°57'1313.1
2015-Mar-23 01:33N 29°54' E 122°11'1211.8
2015-Mar-23 00:33N 29°45' E 122°20'1212.4
2015-Mar-22 23:33N 29°42' E 122°34'10 9.9
2015-Mar-22 22:33N 29°48' E 122°43'3112.6
2015-Mar-22 20:05N 30°15' E 123°02'914.5
2015-Mar-22 19:28N 30°23' E 123°01'1314.2
2015-Mar-22 18:33N 30°36' E 123°00'1514.1
2015-Mar-22 17:30N 30°51' E 122°56'1414.1
2015-Mar-22 16:31N 31°03' E 122°48'1414.4
2015-Mar-22 15:33N 31°05' E 122°32'1010.2
2015-Mar-22 14:33N 31°06' E 122°20'1313.0
2015-Mar-22 13:33N 31°13' E 122°08'1414.2
2015-Mar-22 12:33N 31°16' E 121°51'1111.1
2015-Mar-22 11:33N 31°20' E 121°39'0 0.1
2015-Mar-22 10:33N 31°20' E 121°39'0 0.0
2015-Mar-22 09:33N 31°20' E 121°39'0 0.0
2015-Mar-22 08:33N 31°20' E 121°39'0 0.0
2015-Mar-22 07:33N 31°20' E 121°39'0 0.1
2015-Mar-22 06:33N 31°20' E 121°39'0 0.0
2015-Mar-22 05:33N 31°20' E 121°39'0 0.0
2015-Mar-22 04:33N 31°20' E 121°39'0 0.3
2015-Mar-22 03:33N 31°20' E 121°39'7 6.8
2015-Mar-22 02:33N 31°18' E 121°47'9 9.4
2015-Mar-22 01:33N 31°15' E 121°57'1212.5
2015-Mar-22 00:33N 31°11' E 122°11'1110.8
2015-Mar-21 23:34N 31°06' E 122°22'1110.9
2015-Mar-21 22:33N 31°07' E 122°35'1212.0
2015-Mar-21 21:34N 31°07' E 122°49'7 5.9
2015-Mar-21 20:27N 31°01' E 122°53'0 0.0
2015-Mar-21 19:14N 31°01' E 122°53'0 0.0
2015-Mar-21 12:23N 31°01' E 122°53'0 0.0
2015-Mar-21 11:11N 31°01' E 122°53'0 0.0
2015-Mar-21 08:31N 31°01' E 122°53'0 0.0
2015-Mar-21 06:27N 31°01' E 122°53'0 0.0
2015-Mar-21 05:34N 31°01' E 122°53'0 0.0
2015-Mar-21 03:11N 31°01' E 122°52'0 0.0
2015-Mar-21 02:31N 31°01' E 122°52'0 0.1
2015-Mar-21 01:33N 31°01' E 122°53'0 0.0
2015-Mar-21 00:22N 31°01' E 122°53'0 0.0
2015-Mar-20 23:30N 31°01' E 122°53'0 0.0
2015-Mar-20 22:33N 31°01' E 122°53'0 0.0
2015-Mar-20 21:33N 31°01' E 122°53'0 0.0
2015-Mar-20 20:34N 31°01' E 122°53'0 0.0
2015-Mar-20 19:33N 31°01' E 122°53'0 0.0
2015-Mar-20 18:33N 31°01' E 122°53'0 0.0
2015-Mar-20 16:26N 31°01' E 122°52'0 0.0
2015-Mar-20 15:26N 31°01' E 122°52'0 0.0
2015-Mar-20 14:33N 31°01' E 122°52'0 0.0
2015-Mar-20 12:27N 31°01' E 122°52'0 0.1
2015-Mar-20 11:33N 31°01' E 122°52'0 0.0
2015-Mar-20 10:32N 31°01' E 122°52'0 0.0
2015-Mar-20 09:24N 31°01' E 122°52'0 0.0
2015-Mar-20 08:28N 31°01' E 122°52'0 0.0
2015-Mar-20 07:30N 31°01' E 122°52'0 0.0
2015-Mar-20 06:22N 31°01' E 122°52'0 0.0
2015-Mar-20 05:32N 31°01' E 122°52'0 0.0
2015-Mar-20 04:25N 31°01' E 122°52'0 0.0
2015-Mar-20 00:15N 31°01' E 122°52'0 0.2
2015-Mar-19 23:33N 31°01' E 122°52'0 0.0
2015-Mar-19 22:04N 31°01' E 122°53'0 0.0
2015-Mar-19 21:11N 31°01' E 122°53'0 0.0
2015-Mar-19 20:32N 31°01' E 122°53'0 0.0
2015-Mar-19 19:26N 31°01' E 122°53'0 0.0
2015-Mar-19 17:33N 31°01' E 122°53'0 0.0
2015-Mar-19 16:33N 31°01' E 122°53'0 0.1
2015-Mar-19 15:33N 31°01' E 122°52'0 0.0
2015-Mar-19 14:33N 31°01' E 122°52'0 0.0
2015-Mar-19 13:33N 31°01' E 122°52'0 0.0
2015-Mar-19 12:33N 31°01' E 122°52'0 0.0
2015-Mar-19 11:13N 31°01' E 122°52'0 0.1
2015-Mar-19 10:33N 31°01' E 122°53'0 0.0
2015-Mar-19 04:27N 31°01' E 122°53'0 0.0
2015-Mar-19 03:24N 31°01' E 122°53'14 0.5
2015-Mar-17 20:14N 30°47' E 122°57'9412.0
2015-Mar-17 12:25N 29°13' E 122°44'35012.4
2015-Mar-16 08:05N 24°20' E 119°11'6911.8
2015-Mar-16 02:15N 23°35' E 118°13'  
Track history (hours):
 
Tides and Currents Weather Stations Pressure Air Temp Water Temp Dewpoint Dewpoint Depression Visibility Wind Speed Wind Dir Waves Ship Positions

Lorraine

Last reported at 2015-Mar-26 01:33 UTC. Time now 2015-Mar-31 18:07 UTC.
Position N 22°15' E 120°13'.

Length 221 m; draft 10.8 m.

Type: Ship. MMSI: 636012905.

Date/timePositionNaut miles runAvg speedWind from/ knotsBaromVisibWave heightAir tempDewpointWater temp
2015-Mar-26 01:33N 22°15' E 120°13'1717.3
2015-Mar-26 00:33N 22°33' E 120°15'4 3.6
2015-Mar-25 23:28N 22°33' E 120°20'0 0.0
2015-Mar-25 22:33N 22°33' E 120°20'0 0.0
2015-Mar-25 21:33N 22°33' E 120°20'0 0.0
2015-Mar-25 20:32N 22°33' E 120°20'0 0.0
2015-Mar-25 19:33N 22°33' E 120°20'0 0.0
2015-Mar-25 18:33N 22°33' E 120°20'0 0.0
2015-Mar-25 17:33N 22°33' E 120°20'0 0.0
2015-Mar-25 16:33N 22°33' E 120°20'0 0.0
2015-Mar-25 15:33N 22°33' E 120°20'0 0.0
2015-Mar-25 14:33N 22°33' E 120°20'0 0.0
2015-Mar-25 13:33N 22°33' E 120°20'0 0.1
2015-Mar-25 12:33N 22°33' E 120°20'7 6.7
2015-Mar-25 11:33N 22°32' E 120°12'1716.7
2015-Mar-25 10:33N 22°45' E 120°01'41919.0
2015-Mar-24 12:33N 29°22' E 122°32'2020.1
2015-Mar-24 11:33N 29°41' E 122°26'1615.2
2015-Mar-24 10:31N 29°51' E 122°12'1212.4
2015-Mar-24 09:33N 29°57' E 121°60'7 5.3
2015-Mar-24 08:16N 29°56' E 121°52'0 0.2
2015-Mar-24 07:33N 29°56' E 121°52'0 0.0
2015-Mar-24 06:21N 29°56' E 121°52'0 0.1
2015-Mar-24 05:32N 29°56' E 121°52'0 0.1
2015-Mar-24 04:32N 29°56' E 121°52'0 0.3
2015-Mar-24 03:13N 29°56' E 121°52'1 0.5
2015-Mar-24 01:31N 29°57' E 121°53'0 0.0
2015-Mar-24 00:13N 29°57' E 121°53'0 0.0
2015-Mar-23 23:12N 29°57' E 121°53'0 0.0
2015-Mar-23 22:30N 29°57' E 121°53'0 0.0
2015-Mar-23 21:29N 29°57' E 121°53'0 0.1
2015-Mar-23 20:29N 29°57' E 121°53'0 0.1
2015-Mar-23 19:29N 29°57' E 121°53'0 0.1
2015-Mar-23 18:28N 29°57' E 121°53'0 0.1
2015-Mar-23 17:28N 29°57' E 121°53'0 0.0
2015-Mar-23 16:33N 29°57' E 121°53'0 0.1
2015-Mar-23 15:33N 29°57' E 121°53'0 0.0
2015-Mar-23 14:05N 29°57' E 121°53'0 0.0
2015-Mar-23 13:14N 29°57' E 121°53'0 0.0
2015-Mar-23 12:32N 29°57' E 121°53'0 0.0
2015-Mar-23 11:04N 29°57' E 121°53'0 0.0
2015-Mar-23 10:22N 29°57' E 121°53'0 0.0
2015-Mar-23 09:30N 29°57' E 121°53'0 0.0
2015-Mar-23 08:21N 29°57' E 121°53'0 0.0
2015-Mar-23 07:29N 29°57' E 121°53'0 0.0
2015-Mar-23 06:29N 29°57' E 121°53'0 0.1
2015-Mar-23 05:26N 29°57' E 121°53'0 0.0
2015-Mar-23 04:31N 29°57' E 121°53'0 0.1
2015-Mar-23 03:33N 29°57' E 121°53'3 3.3
2015-Mar-23 02:34N 29°58' E 121°57'1313.1
2015-Mar-23 01:33N 29°54' E 122°11'1211.8
2015-Mar-23 00:33N 29°45' E 122°20'1212.4
2015-Mar-22 23:33N 29°42' E 122°34'10 9.9
2015-Mar-22 22:33N 29°48' E 122°43'3112.6
2015-Mar-22 20:05N 30°15' E 123°02'914.5
2015-Mar-22 19:28N 30°23' E 123°01'1314.2
2015-Mar-22 18:33N 30°36' E 123°00'1514.1
2015-Mar-22 17:30N 30°51' E 122°56'1414.1
2015-Mar-22 16:31N 31°03' E 122°48'1414.4
2015-Mar-22 15:33N 31°05' E 122°32'1010.2
2015-Mar-22 14:33N 31°06' E 122°20'1313.0
2015-Mar-22 13:33N 31°13' E 122°08'1414.2
2015-Mar-22 12:33N 31°16' E 121°51'1111.1
2015-Mar-22 11:33N 31°20' E 121°39'0 0.1
2015-Mar-22 10:33N 31°20' E 121°39'0 0.0
2015-Mar-22 09:33N 31°20' E 121°39'0 0.0
2015-Mar-22 08:33N 31°20' E 121°39'0 0.0
2015-Mar-22 07:33N 31°20' E 121°39'0 0.1
2015-Mar-22 06:33N 31°20' E 121°39'0 0.0
2015-Mar-22 05:33N 31°20' E 121°39'0 0.0
2015-Mar-22 04:33N 31°20' E 121°39'0 0.3
2015-Mar-22 03:33N 31°20' E 121°39'7 6.8
2015-Mar-22 02:33N 31°18' E 121°47'9 9.4
2015-Mar-22 01:33N 31°15' E 121°57'1212.5
2015-Mar-22 00:33N 31°11' E 122°11'1110.8
2015-Mar-21 23:34N 31°06' E 122°22'1110.9
2015-Mar-21 22:33N 31°07' E 122°35'1212.0
2015-Mar-21 21:34N 31°07' E 122°49'7 5.9
2015-Mar-21 20:27N 31°01' E 122°53'0 0.0
2015-Mar-21 19:14N 31°01' E 122°53'0 0.0
2015-Mar-21 12:23N 31°01' E 122°53'0 0.0
2015-Mar-21 11:11N 31°01' E 122°53'0 0.0
2015-Mar-21 08:31N 31°01' E 122°53'0 0.0
2015-Mar-21 06:27N 31°01' E 122°53'0 0.0
2015-Mar-21 05:34N 31°01' E 122°53'0 0.0
2015-Mar-21 03:11N 31°01' E 122°52'0 0.0
2015-Mar-21 02:31N 31°01' E 122°52'0 0.1
2015-Mar-21 01:33N 31°01' E 122°53'0 0.0
2015-Mar-21 00:22N 31°01' E 122°53'0 0.0
2015-Mar-20 23:30N 31°01' E 122°53'0 0.0
2015-Mar-20 22:33N 31°01' E 122°53'0 0.0
2015-Mar-20 21:33N 31°01' E 122°53'0 0.0
2015-Mar-20 20:34N 31°01' E 122°53'0 0.0
2015-Mar-20 19:33N 31°01' E 122°53'0 0.0
2015-Mar-20 18:33N 31°01' E 122°53'0 0.0
2015-Mar-20 16:26N 31°01' E 122°52'0 0.0
2015-Mar-20 15:26N 31°01' E 122°52'0 0.0
2015-Mar-20 14:33N 31°01' E 122°52'0 0.0
2015-Mar-20 12:27N 31°01' E 122°52'0 0.1
2015-Mar-20 11:33N 31°01' E 122°52'0 0.0
2015-Mar-20 10:32N 31°01' E 122°52'0 0.0
2015-Mar-20 09:24N 31°01' E 122°52'0 0.0
2015-Mar-20 08:28N 31°01' E 122°52'0 0.0
2015-Mar-20 07:30N 31°01' E 122°52'0 0.0
2015-Mar-20 06:22N 31°01' E 122°52'0 0.0
2015-Mar-20 05:32N 31°01' E 122°52'0 0.0
2015-Mar-20 04:25N 31°01' E 122°52'0 0.0
2015-Mar-20 00:15N 31°01' E 122°52'0 0.2
2015-Mar-19 23:33N 31°01' E 122°52'0 0.0
2015-Mar-19 22:04N 31°01' E 122°53'0 0.0
2015-Mar-19 21:11N 31°01' E 122°53'0 0.0
2015-Mar-19 20:32N 31°01' E 122°53'0 0.0
2015-Mar-19 19:26N 31°01' E 122°53'0 0.0
2015-Mar-19 17:33N 31°01' E 122°53'0 0.0
2015-Mar-19 16:33N 31°01' E 122°53'0 0.1
2015-Mar-19 15:33N 31°01' E 122°52'0 0.0
2015-Mar-19 14:33N 31°01' E 122°52'0 0.0
2015-Mar-19 13:33N 31°01' E 122°52'0 0.0
2015-Mar-19 12:33N 31°01' E 122°52'0 0.0
2015-Mar-19 11:13N 31°01' E 122°52'0 0.1
2015-Mar-19 10:33N 31°01' E 122°53'0 0.0
2015-Mar-19 04:27N 31°01' E 122°53'0 0.0
2015-Mar-19 03:24N 31°01' E 122°53'14 0.5
2015-Mar-17 20:14N 30°47' E 122°57'9412.0
2015-Mar-17 12:25N 29°13' E 122°44'35012.4
2015-Mar-16 08:05N 24°20' E 119°11'6911.8
2015-Mar-16 02:15N 23°35' E 118°13'  

Dump ship's entire track history